createdAt,value
2023-03-20T00:00:24.452Z,16.4
2023-03-20T00:10:24.532Z,16.3
2023-03-20T00:20:26.197Z,16.6
2023-03-20T00:30:25.811Z,16.2
2023-03-20T00:40:26.191Z,16.1
2023-03-20T00:50:28.251Z,16.2
2023-03-20T01:00:27.084Z,16.1
2023-03-20T01:10:27.741Z,16.1
2023-03-20T01:20:28.515Z,16.1
2023-03-20T01:30:28.466Z,16
2023-03-20T01:40:29.608Z,16
2023-03-20T01:50:30.795Z,16
2023-03-20T02:00:31.286Z,16
2023-03-20T02:10:31.246Z,15.9
2023-03-20T02:20:31.932Z,15.9
2023-03-20T02:30:32.131Z,16.1
2023-03-20T02:40:31.760Z,15.8
2023-03-20T02:50:32.955Z,15.8
2023-03-20T03:10:08.769Z,15.9
2023-03-20T03:20:09.759Z,16.3
2023-03-20T03:30:09.441Z,15.8
2023-03-20T03:40:09.720Z,15.8
2023-03-20T03:50:10.377Z,15.8
2023-03-20T04:00:11.012Z,15.7
2023-03-20T04:10:12.444Z,15.7
2023-03-20T04:20:14.020Z,15.6
2023-03-20T04:30:15.390Z,15.6
2023-03-20T04:40:17.553Z,15.6
2023-03-20T04:50:19.661Z,15.6
2023-03-20T05:00:20.908Z,15.9
2023-03-20T05:10:20.569Z,15.5
2023-03-20T05:20:21.046Z,16.2
2023-03-20T05:30:25.713Z,16.4
2023-03-20T05:40:37.390Z,15.8
2023-03-20T05:50:52.152Z,15.9
2023-03-20T06:01:06.844Z,16
2023-03-20T06:11:19.984Z,16.2
2023-03-20T06:21:35.557Z,16.1
2023-03-20T06:31:49.572Z,15.3
2023-03-20T06:42:03.379Z,14.9
2023-03-20T06:52:17.909Z,15.1
2023-03-20T07:02:33.570Z,15.4
2023-03-20T07:12:48.669Z,16
2023-03-20T07:23:03.463Z,15.8
2023-03-20T07:33:19.116Z,18.9
2023-03-20T07:43:34.121Z,17.1
2023-03-20T07:53:52.913Z,17.6
2023-03-20T08:04:10.066Z,18.2
2023-03-20T08:14:24.326Z,18.2
2023-03-20T08:24:39.158Z,18.4
2023-03-20T08:34:53.872Z,18.4
2023-03-20T08:45:09.421Z,19.1
2023-03-20T08:55:26.158Z,19.8
2023-03-20T09:10:28.772Z,19.9
2023-03-20T09:20:49.117Z,19.9
2023-03-20T09:31:09.085Z,19.8
2023-03-20T09:41:29.634Z,20.1
2023-03-20T09:51:47.643Z,20.1
2023-03-20T10:02:02.692Z,20.6
2023-03-20T10:12:21.393Z,20.1
2023-03-20T10:22:42.580Z,20.8
2023-03-20T10:33:03.688Z,20.1
2023-03-20T10:43:25.360Z,20.6
2023-03-20T10:53:43.527Z,20.2
2023-03-20T11:04:04.000Z,20.2
2023-03-20T11:14:23.381Z,20.1
2023-03-20T11:24:42.827Z,20.3
2023-03-20T11:35:00.906Z,20.1
2023-03-20T11:45:19.136Z,20.1
2023-03-20T11:55:35.184Z,20.1
2023-03-20T12:05:48.710Z,20.1
2023-03-20T12:16:00.278Z,20.1
2023-03-20T12:26:10.214Z,19.6
2023-03-20T12:36:16.696Z,20.7
2023-03-20T12:46:21.830Z,20.1
2023-03-20T12:56:26.692Z,20.3
2023-03-20T13:06:31.300Z,20.2
2023-03-20T13:16:35.757Z,19.9
2023-03-20T13:26:40.257Z,20.3
2023-03-20T13:36:44.840Z,20
2023-03-20T13:46:49.421Z,20.1
2023-03-20T13:56:53.760Z,19.8
2023-03-20T14:06:58.262Z,19.9
2023-03-20T14:17:02.679Z,19.8
2023-03-20T14:27:06.786Z,19.9
2023-03-20T14:37:07.822Z,19.9
2023-03-20T14:47:10.030Z,19.7
2023-03-20T14:57:13.215Z,19.7
2023-03-20T15:10:11.844Z,19.9
2023-03-20T15:20:13.359Z,19.8
2023-03-20T15:30:15.110Z,19.8
2023-03-20T15:40:18.170Z,19.9
2023-03-20T15:50:20.706Z,19.9
2023-03-20T16:00:21.026Z,19.5
2023-03-20T16:10:21.791Z,19.4
2023-03-20T16:20:22.546Z,19.3
2023-03-20T16:30:23.939Z,19.6
2023-03-20T16:40:27.022Z,19.5
2023-03-20T16:50:28.679Z,19.6
2023-03-20T17:00:30.928Z,19.6
2023-03-20T17:10:32.274Z,19.4
2023-03-20T17:20:34.877Z,19.5
2023-03-20T17:30:35.589Z,19.2
2023-03-20T17:40:36.070Z,19.1
2023-03-20T17:50:38.615Z,19.2
2023-03-20T18:00:40.215Z,18.9
2023-03-20T18:10:40.972Z,18.9
2023-03-20T18:20:41.654Z,19.2
2023-03-20T18:30:42.880Z,18.6
2023-03-20T18:40:43.826Z,18.8
2023-03-20T18:50:44.696Z,18.6
2023-03-20T19:00:44.769Z,18.8
2023-03-20T19:10:45.983Z,18.9
2023-03-20T19:20:46.882Z,18.6
2023-03-20T19:30:47.310Z,18.6
2023-03-20T19:40:47.260Z,18.4
2023-03-20T19:50:47.101Z,18.4
2023-03-20T20:01:13.205Z,18.4
2023-03-20T20:10:49.639Z,18.9
2023-03-20T20:21:28.671Z,18.4
2023-03-20T20:30:50.784Z,18.8
2023-03-20T20:40:51.257Z,18.3
2023-03-20T20:50:50.933Z,18.3
2023-03-20T21:10:07.181Z,18.4
2023-03-20T21:20:06.429Z,18.3
2023-03-20T21:30:07.016Z,18.1
2023-03-20T21:40:13.357Z,18.8
2023-03-20T21:50:52.859Z,18.1
2023-03-20T22:32:52.774Z,18
2023-03-20T22:42:51.061Z,17.9
2023-03-20T22:52:35.013Z,18
2023-03-20T23:02:25.758Z,17.9
2023-03-20T23:12:26.038Z,18.3
2023-03-20T23:22:26.553Z,17.9
2023-03-20T23:32:26.791Z,18.4
2023-03-20T23:42:30.520Z,17.9
2023-03-20T23:52:26.456Z,18
